Time;durP1;ratioP1;P1;durP2;ratioP2;P2;SDS_P1;SDS_P2;PMS_P1;PMS_P2;Temp;Humidity;BMP_temperature;BMP_pressure;BME280_temperature;BME280_humidity;BME280_pressure;Samples;Min_cycle;Max_cycle;Signal;HPM_P1;HPM_P2
2023/04/29 00:01:11;;;;;;;41.60;28.48;;;10.20;99.90;;;;;;5005165;28;20049;-58
2023/04/29 00:03:37;;;;;;;40.05;27.17;;;10.20;99.90;;;;;;5040073;28;20038;-58
2023/04/29 00:06:02;;;;;;;40.47;27.13;;;10.20;99.90;;;;;;5022022;28;20049;-57
2023/04/29 00:08:28;;;;;;;37.85;25.90;;;10.20;99.90;;;;;;5039077;28;20095;-57
2023/04/29 00:10:54;;;;;;;42.08;27.15;;;10.20;99.90;;;;;;5021908;28;20052;-57
2023/04/29 00:13:20;;;;;;;43.85;27.30;;;10.20;99.90;;;;;;5038328;28;20686;-58
2023/04/29 00:15:46;;;;;;;41.50;26.70;;;10.20;99.90;;;;;;5039677;28;20052;-58
2023/04/29 00:18:12;;;;;;;40.45;26.75;;;10.20;99.90;;;;;;5038768;28;20118;-57
2023/04/29 00:20:38;;;;;;;41.20;26.50;;;10.20;99.90;;;;;;5021683;28;20049;-56
2023/04/29 00:23:05;;;;;;;31.80;22.30;;;10.10;99.90;;;;;;5039494;28;20048;-58
2023/04/29 00:25:31;;;;;;;40.40;26.35;;;10.10;99.90;;;;;;5039213;28;20088;-58
2023/04/29 00:28:00;;;;;;;39.08;25.50;;;10.20;99.90;;;;;;5039663;28;20045;-58
2023/04/29 00:30:30;;;;;;;40.65;24.40;;;10.10;99.90;;;;;;5020983;28;20045;-57
2023/04/29 00:32:55;;;;;;;36.88;25.45;;;10.10;99.90;;;;;;5039340;28;20046;-57
2023/04/29 00:35:22;;;;;;;38.85;25.35;;;10.10;99.90;;;;;;5038674;28;20604;-58
2023/04/29 00:37:47;;;;;;;35.08;24.50;;;10.10;99.90;;;;;;5039752;28;20072;-58
2023/04/29 00:40:16;;;;;;;35.67;23.58;;;10.10;99.90;;;;;;5038980;28;20049;-57
2023/04/29 00:42:42;;;;;;;36.53;23.33;;;10.10;99.90;;;;;;5039002;28;20047;-57
2023/04/29 00:45:10;;;;;;;32.45;23.33;;;10.10;99.90;;;;;;5038475;28;20041;-58
2023/04/29 00:47:36;;;;;;;33.75;22.35;;;10.00;99.90;;;;;;5020693;28;20073;-57
2023/04/29 00:50:03;;;;;;;40.05;23.95;;;10.00;99.90;;;;;;5039241;28;20046;-58
2023/04/29 00:52:32;;;;;;;39.72;23.40;;;10.00;99.90;;;;;;5020815;28;20088;-57
2023/04/29 00:54:58;;;;;;;36.15;22.63;;;10.00;99.90;;;;;;5039409;28;20073;-57
2023/04/29 00:57:27;;;;;;;33.03;23.42;;;10.00;99.90;;;;;;5038949;28;20053;-57
2023/04/29 00:59:54;;;;;;;36.38;22.38;;;10.00;99.90;;;;;;5020528;28;20087;-58
2023/04/29 01:02:20;;;;;;;36.13;22.63;;;10.00;99.90;;;;;;5038680;28;20041;-57
2023/04/29 01:04:46;;;;;;;34.30;22.08;;;10.00;99.90;;;;;;5038215;28;20045;-57
2023/04/29 01:07:28;;;;;;;31.70;21.77;;;10.00;99.90;;;;;;5021506;28;20083;-57
2023/04/29 01:10:08;;;;;;;35.45;22.23;;;10.00;99.90;;;;;;5038582;28;20037;-57
2023/04/29 01:13:00;;;;;;;36.45;23.13;;;10.00;99.90;;;;;;5038679;28;20053;-59
2023/04/29 01:15:46;;;;;;;32.53;21.45;;;10.00;99.90;;;;;;5038453;28;20077;-57
2023/04/29 01:18:23;;;;;;;33.65;21.73;;;9.90;99.90;;;;;;5020515;28;20048;-57
2023/04/29 01:20:49;;;;;;;30.13;21.98;;;9.90;99.90;;;;;;5042644;28;20049;-58
2023/04/29 01:23:15;;;;;;;32.88;22.15;;;9.90;99.90;;;;;;5025015;28;20045;-57
2023/04/29 01:25:42;;;;;;;36.47;21.25;;;9.90;99.90;;;;;;5042374;28;20048;-58
2023/04/29 01:28:25;;;;;;;38.38;21.60;;;9.90;99.90;;;;;;5042959;28;20778;-58
2023/04/29 01:31:26;;;;;;;37.80;22.52;;;9.90;99.90;;;;;;5041566;28;20049;-57
2023/04/29 01:34:20;;;;;;;37.80;23.05;;;9.90;99.90;;;;;;4998397;28;20102;-57
2023/04/29 01:37:32;;;;;;;35.92;22.42;;;9.90;99.90;;;;;;5042643;28;20049;-58
2023/04/29 01:40:16;;;;;;;32.65;22.20;;;9.80;99.90;;;;;;5042135;28;20049;-58
2023/04/29 01:42:47;;;;;;;35.30;21.92;;;9.80;99.90;;;;;;5042313;28;20101;-58
2023/04/29 01:45:20;;;;;;;34.15;23.25;;;9.80;99.90;;;;;;5042026;28;20052;-58
2023/04/29 01:47:46;;;;;;;33.20;22.05;;;9.80;99.90;;;;;;5041818;28;20064;-57
2023/04/29 01:50:12;;;;;;;42.75;21.48;;;9.80;99.90;;;;;;5024722;28;20045;-57
2023/04/29 01:52:37;;;;;;;38.17;21.73;;;9.80;99.90;;;;;;5041752;28;20088;-58
2023/04/29 01:55:04;;;;;;;34.67;22.33;;;9.80;99.90;;;;;;5042496;28;20037;-57
2023/04/29 01:57:29;;;;;;;35.80;20.98;;;9.80;99.90;;;;;;5042144;28;20077;-56
2023/04/29 01:59:56;;;;;;;34.63;21.88;;;9.80;99.90;;;;;;5041856;28;20045;-56
2023/04/29 02:02:22;;;;;;;31.67;20.90;;;9.80;99.90;;;;;;5041631;28;20052;-57
2023/04/29 02:04:49;;;;;;;33.22;22.17;;;9.80;99.90;;;;;;5041418;28;20033;-57
2023/04/29 02:07:15;;;;;;;37.88;22.05;;;9.70;99.90;;;;;;5042407;28;20045;-57
2023/04/29 02:09:41;;;;;;;38.60;24.27;;;9.80;99.90;;;;;;5041502;28;20116;-57
2023/04/29 02:12:07;;;;;;;35.30;22.40;;;9.80;99.90;;;;;;5042324;28;20041;-57
2023/04/29 02:14:33;;;;;;;37.17;21.92;;;9.70;99.90;;;;;;5041129;28;20132;-57
2023/04/29 02:16:59;;;;;;;36.05;21.35;;;9.70;99.90;;;;;;5041570;28;20049;-58
2023/04/29 02:19:25;;;;;;;34.38;22.70;;;9.70;99.90;;;;;;5041654;28;20101;-58
2023/04/29 02:21:50;;;;;;;37.05;21.75;;;9.70;99.90;;;;;;5022956;28;20076;-57
2023/04/29 02:24:16;;;;;;;34.65;21.77;;;9.70;99.90;;;;;;5024110;28;20053;-61
2023/04/29 02:26:42;;;;;;;41.40;22.55;;;9.70;99.90;;;;;;5023490;28;20052;-57
2023/04/29 02:29:07;;;;;;;35.10;22.35;;;9.70;99.90;;;;;;5041882;28;20101;-58
2023/04/29 02:31:33;;;;;;;35.45;22.00;;;9.70;99.90;;;;;;5040898;28;20041;-59
2023/04/29 02:33:59;;;;;;;37.67;21.98;;;9.70;99.90;;;;;;5041454;28;20472;-57
2023/04/29 02:36:25;;;;;;;40.22;21.88;;;9.70;99.90;;;;;;5041649;28;20501;-57
2023/04/29 02:38:54;;;;;;;38.75;22.15;;;9.70;99.90;;;;;;5040713;28;20056;-57
2023/04/29 02:41:20;;;;;;;34.80;20.10;;;9.70;99.90;;;;;;5041340;28;20050;-57
2023/04/29 02:43:45;;;;;;;36.75;21.27;;;9.60;99.90;;;;;;5040196;28;20064;-58
2023/04/29 02:46:11;;;;;;;39.50;22.00;;;9.60;99.90;;;;;;5041738;28;20049;-57
2023/04/29 02:48:37;;;;;;;40.03;22.40;;;9.60;99.90;;;;;;5041018;28;20045;-58
2023/04/29 02:51:03;;;;;;;38.28;21.77;;;9.60;99.90;;;;;;5041188;28;20045;-57
2023/04/29 02:53:28;;;;;;;38.67;21.35;;;9.60;99.90;;;;;;5041045;28;20051;-57
2023/04/29 02:55:54;;;;;;;35.80;21.50;;;9.60;99.90;;;;;;5022665;28;20056;-57
2023/04/29 02:58:20;;;;;;;41.40;22.20;;;9.50;99.90;;;;;;5041246;28;20122;-56
2023/04/29 03:00:46;;;;;;;33.22;21.17;;;9.50;99.90;;;;;;5039880;28;20049;-57
2023/04/29 03:03:11;;;;;;;44.53;22.45;;;9.50;99.90;;;;;;5023641;28;20100;-57
2023/04/29 03:05:37;;;;;;;39.63;22.27;;;9.50;99.90;;;;;;5040611;28;20041;-57
2023/04/29 03:08:03;;;;;;;42.65;22.35;;;9.50;99.90;;;;;;5041087;28;20048;-57
2023/04/29 03:10:29;;;;;;;39.83;22.52;;;9.50;99.90;;;;;;5040862;28;20041;-58
2023/04/29 03:12:55;;;;;;;37.97;20.15;;;9.50;99.90;;;;;;5040147;28;20060;-57
2023/04/29 03:15:21;;;;;;;29.38;18.95;;;9.50;99.90;;;;;;5040336;28;20527;-58
2023/04/29 03:17:47;;;;;;;34.40;19.58;;;9.50;99.90;;;;;;5040020;28;20124;-58
2023/04/29 03:20:13;;;;;;;38.67;22.15;;;9.50;99.90;;;;;;5040746;28;20053;-57
2023/04/29 03:22:38;;;;;;;34.10;21.70;;;9.40;99.90;;;;;;5040327;28;20044;-57
2023/04/29 03:25:05;;;;;;;39.13;20.52;;;9.40;99.90;;;;;;5040909;28;20045;-58
2023/04/29 03:27:31;;;;;;;32.20;21.88;;;9.40;99.90;;;;;;5006466;28;20041;-57
2023/04/29 03:29:57;;;;;;;35.33;21.58;;;9.40;99.90;;;;;;5039976;28;20382;-58
2023/04/29 03:32:23;;;;;;;41.17;22.38;;;9.40;99.90;;;;;;5040134;28;20045;-58
2023/04/29 03:34:48;;;;;;;35.78;20.70;;;9.40;99.90;;;;;;5039674;28;20052;-58
2023/04/29 03:37:15;;;;;;;35.55;20.35;;;9.30;99.90;;;;;;5040629;28;20037;-58
2023/04/29 03:39:41;;;;;;;28.25;20.08;;;9.30;99.90;;;;;;5022074;28;20060;-57
2023/04/29 03:42:07;;;;;;;33.35;21.80;;;9.30;99.90;;;;;;5039979;28;20049;-58
2023/04/29 03:44:33;;;;;;;32.70;19.17;;;9.30;99.90;;;;;;5039702;28;20041;-57
2023/04/29 03:46:58;;;;;;;34.63;20.65;;;9.30;99.90;;;;;;5040047;28;20060;-57
2023/04/29 03:49:25;;;;;;;40.80;20.23;;;9.30;99.90;;;;;;5040008;28;20048;-57
2023/04/29 03:51:51;;;;;;;32.38;20.33;;;9.30;99.90;;;;;;5021359;28;20045;-57
2023/04/29 03:54:17;;;;;;;30.23;20.30;;;9.30;99.90;;;;;;5040146;28;20044;-58
2023/04/29 03:56:42;;;;;;;36.38;19.80;;;9.30;99.90;;;;;;5039625;28;20460;-57
2023/04/29 03:59:08;;;;;;;31.88;19.30;;;9.30;99.90;;;;;;5022327;28;20115;-58
2023/04/29 04:01:34;;;;;;;31.83;19.13;;;9.30;99.90;;;;;;5039661;28;20046;-56
2023/04/29 04:04:00;;;;;;;31.50;19.65;;;9.30;99.90;;;;;;5039843;28;20041;-58
2023/04/29 04:06:25;;;;;;;31.10;19.35;;;9.30;99.90;;;;;;5039872;28;20544;-57
2023/04/29 04:08:51;;;;;;;34.63;18.98;;;9.20;99.90;;;;;;5039093;28;20042;-59
2023/04/29 04:11:17;;;;;;;28.92;18.60;;;9.20;99.90;;;;;;5039753;28;20121;-57
2023/04/29 04:13:43;;;;;;;36.67;19.60;;;9.20;99.90;;;;;;5038333;28;20057;-57
2023/04/29 04:16:11;;;;;;;30.73;19.65;;;9.20;99.90;;;;;;5040192;28;20056;-58
2023/04/29 04:18:38;;;;;;;34.47;21.45;;;9.20;99.90;;;;;;5039278;28;20045;-56
2023/04/29 04:21:07;;;;;;;33.60;19.42;;;9.20;99.90;;;;;;5039090;28;20118;-57
2023/04/29 04:23:33;;;;;;;41.25;20.80;;;9.20;99.90;;;;;;5039310;28;20057;-57
2023/04/29 04:25:59;;;;;;;36.88;20.95;;;9.20;99.90;;;;;;5038657;28;20045;-57
2023/04/29 04:28:25;;;;;;;33.30;20.75;;;9.20;99.90;;;;;;5039551;28;20437;-57
2023/04/29 04:30:51;;;;;;;35.95;19.75;;;9.10;99.90;;;;;;5038313;28;20037;-57
2023/04/29 04:33:17;;;;;;;35.40;20.88;;;9.10;99.90;;;;;;5039939;28;20735;-58
2023/04/29 04:35:43;;;;;;;35.25;19.70;;;9.20;99.90;;;;;;5039008;28;20057;-58
2023/04/29 04:38:10;;;;;;;37.13;19.85;;;9.20;99.90;;;;;;5039263;28;20123;-58
2023/04/29 04:40:36;;;;;;;39.92;21.42;;;9.20;99.90;;;;;;5038918;28;20041;-57
2023/04/29 04:43:02;;;;;;;30.92;18.83;;;9.20;99.90;;;;;;5038739;28;20053;-57
2023/04/29 04:45:30;;;;;;;35.22;20.50;;;9.20;99.90;;;;;;5038620;28;20045;-57
2023/04/29 04:47:56;;;;;;;35.70;21.48;;;9.20;99.90;;;;;;5038434;28;20049;-57
2023/04/29 04:50:22;;;;;;;37.45;20.77;;;9.10;99.90;;;;;;5039340;28;20152;-57
2023/04/29 04:52:47;;;;;;;41.05;21.48;;;9.20;99.90;;;;;;5020636;28;20050;-57
2023/04/29 04:55:13;;;;;;;39.17;21.73;;;9.20;99.90;;;;;;5037967;28;20072;-57
2023/04/29 04:57:39;;;;;;;38.78;21.70;;;9.20;99.90;;;;;;5039128;28;20068;-57
2023/04/29 05:00:05;;;;;;;34.00;19.45;;;9.20;99.90;;;;;;5038181;28;20042;-58
2023/04/29 05:02:31;;;;;;;37.13;20.98;;;9.20;99.90;;;;;;5021049;28;20075;-57
2023/04/29 05:04:57;;;;;;;36.05;20.83;;;9.20;99.90;;;;;;5038176;28;20072;-58
2023/04/29 05:07:22;;;;;;;38.67;21.17;;;9.20;99.90;;;;;;5039222;28;20057;-57
2023/04/29 05:09:48;;;;;;;37.75;20.15;;;9.20;99.90;;;;;;5038266;28;20061;-57
2023/04/29 05:12:14;;;;;;;38.83;20.83;;;9.20;99.90;;;;;;5039053;28;20081;-57
2023/04/29 05:14:40;;;;;;;41.78;20.92;;;9.20;99.90;;;;;;5038326;28;20409;-58
2023/04/29 05:17:06;;;;;;;34.47;20.40;;;9.20;99.90;;;;;;5038373;28;20044;-59
2023/04/29 05:19:31;;;;;;;37.30;20.35;;;9.20;99.90;;;;;;5020982;28;20477;-58
2023/04/29 05:21:57;;;;;;;38.55;19.92;;;9.20;99.90;;;;;;5037932;28;20454;-58
2023/04/29 05:24:22;;;;;;;35.25;20.13;;;9.30;99.90;;;;;;5038700;28;20053;-57
2023/04/29 05:26:50;;;;;;;37.53;19.45;;;9.30;99.90;;;;;;5038260;28;20045;-57
2023/04/29 05:29:16;;;;;;;36.88;18.05;;;9.30;99.90;;;;;;5038804;28;20099;-57
2023/04/29 05:31:42;;;;;;;31.52;18.95;;;9.30;99.90;;;;;;5038435;28;20612;-57
2023/04/29 05:34:07;;;;;;;27.83;16.83;;;9.30;99.90;;;;;;5038097;28;20049;-57
2023/04/29 05:36:33;;;;;;;32.08;17.95;;;9.30;99.90;;;;;;5038610;28;20105;-56
2023/04/29 05:38:59;;;;;;;39.15;19.20;;;9.30;99.90;;;;;;5037992;28;20041;-60
2023/04/29 05:41:25;;;;;;;35.45;17.42;;;9.40;99.90;;;;;;5038765;28;20067;-56
2023/04/29 05:43:50;;;;;;;28.17;18.17;;;9.40;99.90;;;;;;5037714;28;20085;-57
2023/04/29 05:46:16;;;;;;;26.25;17.33;;;9.40;99.90;;;;;;5039013;28;20033;-57
2023/04/29 05:48:42;;;;;;;30.33;16.27;;;9.50;99.90;;;;;;5038519;28;20060;-57
2023/04/29 05:51:08;;;;;;;26.60;16.77;;;9.40;99.90;;;;;;5038488;28;20099;-57
2023/04/29 05:53:34;;;;;;;28.10;16.52;;;9.40;99.90;;;;;;5038124;28;20033;-56
2023/04/29 05:56:03;;;;;;;26.98;14.45;;;9.50;99.90;;;;;;5020359;28;20175;-56
2023/04/29 05:58:29;;;;;;;28.50;14.65;;;9.50;99.90;;;;;;5038673;28;20099;-57
2023/04/29 06:00:55;;;;;;;27.70;15.40;;;9.50;99.90;;;;;;5037412;28;20041;-56
2023/04/29 06:03:21;;;;;;;26.00;14.02;;;9.50;99.90;;;;;;5038792;28;20092;-56
2023/04/29 06:05:47;;;;;;;24.08;13.93;;;9.60;99.90;;;;;;5039980;28;20076;-56
2023/04/29 06:08:13;;;;;;;24.58;14.18;;;9.60;99.90;;;;;;5041780;28;20045;-57
2023/04/29 06:10:38;;;;;;;22.45;13.25;;;9.50;99.90;;;;;;5041763;28;20073;-57
2023/04/29 06:13:04;;;;;;;24.73;12.63;;;9.60;99.90;;;;;;5041237;28;20056;-57
2023/04/29 06:15:30;;;;;;;21.10;12.20;;;9.70;99.90;;;;;;5023763;28;20077;-57
2023/04/29 06:17:56;;;;;;;23.23;12.75;;;9.70;99.90;;;;;;5041186;28;20076;-57
2023/04/29 06:20:21;;;;;;;24.30;13.38;;;9.70;99.90;;;;;;5042287;28;20378;-57
2023/04/29 06:22:48;;;;;;;21.05;12.23;;;9.80;99.90;;;;;;5041045;28;20052;-57
2023/04/29 06:25:13;;;;;;;20.00;11.60;;;9.80;99.90;;;;;;5041671;28;20050;-57
2023/04/29 06:27:39;;;;;;;18.00;11.13;;;9.90;99.90;;;;;;5041851;28;20049;-57
2023/04/29 06:30:06;;;;;;;16.10;11.52;;;9.90;99.90;;;;;;5040953;28;20073;-57
2023/04/29 06:32:31;;;;;;;18.75;11.52;;;10.00;99.90;;;;;;5041315;28;20060;-56
2023/04/29 06:34:57;;;;;;;17.67;11.30;;;10.00;99.90;;;;;;5040889;28;20041;-57
2023/04/29 06:37:23;;;;;;;18.15;9.93;;;10.00;99.90;;;;;;5041767;28;20041;-57
2023/04/29 06:39:48;;;;;;;19.92;11.90;;;10.10;99.90;;;;;;5041083;28;20512;-57
2023/04/29 06:42:14;;;;;;;21.98;10.30;;;10.20;99.90;;;;;;5041529;28;20434;-57
2023/04/29 06:44:40;;;;;;;18.27;8.60;;;10.20;99.90;;;;;;5040889;28;20049;-57
2023/04/29 06:47:05;;;;;;;16.80;10.38;;;10.20;99.90;;;;;;5022700;28;20048;-58
2023/04/29 06:49:31;;;;;;;18.67;11.95;;;10.30;99.90;;;;;;5041111;28;20045;-57
2023/04/29 06:51:58;;;;;;;17.98;9.95;;;10.30;99.90;;;;;;5040517;28;20042;-58
2023/04/29 06:54:26;;;;;;;17.95;10.43;;;10.50;99.90;;;;;;5007297;28;20042;-56
2023/04/29 06:56:52;;;;;;;15.00;9.65;;;10.50;99.90;;;;;;5006974;28;20044;-57
2023/04/29 06:59:17;;;;;;;16.35;9.50;;;10.50;99.90;;;;;;5041162;28;20045;-56
2023/04/29 07:01:43;;;;;;;13.73;8.65;;;10.50;99.90;;;;;;5040909;28;20076;-57
2023/04/29 07:04:09;;;;;;;16.13;9.43;;;10.60;99.90;;;;;;5040370;28;20045;-57
2023/04/29 07:06:35;;;;;;;18.35;10.27;;;10.60;99.90;;;;;;5040784;28;20094;-57
2023/04/29 07:09:01;;;;;;;16.63;9.75;;;10.70;99.90;;;;;;5040217;28;20049;-58
2023/04/29 07:11:27;;;;;;;14.68;9.00;;;10.80;99.90;;;;;;5023151;28;20630;-58
2023/04/29 07:13:52;;;;;;;18.65;9.60;;;11.00;99.90;;;;;;5039878;28;20049;-57
2023/04/29 07:16:20;;;;;;;14.20;7.68;;;11.10;99.90;;;;;;5040506;28;20077;-57
2023/04/29 07:18:47;;;;;;;13.50;8.35;;;11.30;99.90;;;;;;5040225;28;20041;-57
2023/04/29 07:21:13;;;;;;;15.73;8.80;;;11.40;99.90;;;;;;5022230;28;20068;-57
2023/04/29 07:23:38;;;;;;;14.25;8.50;;;11.50;99.90;;;;;;5040145;28;20049;-55
2023/04/29 07:26:16;;;;;;;13.45;8.75;;;11.70;99.90;;;;;;5039834;28;20034;-57
2023/04/29 07:28:42;;;;;;;13.20;8.85;;;11.80;99.90;;;;;;5040751;28;20037;-57
2023/04/29 07:31:08;;;;;;;12.48;7.15;;;12.10;99.90;;;;;;5040064;28;20076;-57
2023/04/29 07:33:34;;;;;;;13.00;8.90;;;12.50;99.90;;;;;;5040374;28;20053;-56
2023/04/29 07:36:00;;;;;;;15.45;8.13;;;12.70;99.90;;;;;;5040051;28;20300;-56
2023/04/29 07:38:26;;;;;;;12.85;7.45;;;12.90;99.90;;;;;;5039812;28;20037;-56
2023/04/29 07:40:52;;;;;;;11.63;8.20;;;13.10;99.90;;;;;;5039990;28;20052;-57
2023/04/29 07:43:18;;;;;;;12.07;7.80;;;13.10;99.90;;;;;;5021372;28;20061;-57
2023/04/29 07:45:43;;;;;;;16.40;7.97;;;13.30;99.90;;;;;;5040214;28;20101;-56
2023/04/29 07:48:09;;;;;;;10.20;6.47;;;13.30;99.90;;;;;;5039432;28;20037;-58
2023/04/29 07:50:36;;;;;;;11.77;6.88;;;13.40;99.90;;;;;;5040471;28;20042;-56
2023/04/29 07:53:05;;;;;;;12.20;7.50;;;13.50;99.90;;;;;;5039796;28;20053;-56
2023/04/29 07:55:31;;;;;;;10.50;7.40;;;13.80;99.90;;;;;;5039233;28;20038;-56
2023/04/29 07:57:57;;;;;;;8.27;6.53;;;13.80;99.90;;;;;;5021995;28;20096;-58
2023/04/29 08:00:23;;;;;;;16.92;8.10;;;14.00;99.90;;;;;;5038776;28;20068;-57
2023/04/29 08:02:56;;;;;;;10.85;6.88;;;14.00;99.90;;;;;;5039992;28;20049;-57
2023/04/29 08:05:22;;;;;;;12.15;7.53;;;14.00;99.90;;;;;;5039495;28;20058;-57
2023/04/29 08:07:49;;;;;;;14.20;8.13;;;14.10;99.90;;;;;;5039894;28;20038;-57
2023/04/29 08:10:16;;;;;;;11.60;7.32;;;14.10;99.90;;;;;;5039734;28;20037;-57
2023/04/29 08:12:44;;;;;;;11.50;6.72;;;14.30;99.90;;;;;;5039071;28;20485;-57
2023/04/29 08:15:10;;;;;;;12.30;7.07;;;14.30;99.90;;;;;;5038935;28;20065;-57
2023/04/29 08:17:36;;;;;;;12.00;7.80;;;14.40;99.90;;;;;;5038988;28;20041;-57
2023/04/29 08:20:02;;;;;;;11.30;7.60;;;14.30;99.90;;;;;;5039711;28;20049;-57
2023/04/29 08:22:27;;;;;;;15.60;7.72;;;14.40;99.90;;;;;;5038965;28;20053;-56
2023/04/29 08:24:53;;;;;;;11.00;7.85;;;14.50;99.90;;;;;;5039881;28;20052;-56
2023/04/29 08:27:20;;;;;;;11.43;7.00;;;14.40;99.90;;;;;;5039409;28;20133;-56
2023/04/29 08:29:46;;;;;;;11.75;7.30;;;14.40;99.90;;;;;;5038547;28;20053;-57
2023/04/29 08:32:12;;;;;;;15.20;7.28;;;14.40;99.90;;;;;;5039165;28;20045;-58
2023/04/29 08:34:40;;;;;;;12.55;7.78;;;14.40;99.90;;;;;;5038402;28;20049;-56
2023/04/29 08:37:06;;;;;;;10.15;7.10;;;14.40;99.90;;;;;;5039380;28;20056;-57
2023/04/29 08:39:31;;;;;;;12.20;7.28;;;14.50;99.90;;;;;;5020785;28;20076;-56
2023/04/29 08:41:58;;;;;;;12.50;7.57;;;14.50;99.90;;;;;;5039379;28;20072;-57
2023/04/29 08:44:27;;;;;;;11.88;7.00;;;14.50;99.90;;;;;;5038358;28;20490;-56
2023/04/29 08:46:54;;;;;;;13.95;7.65;;;14.50;99.90;;;;;;5038495;28;20037;-57
2023/04/29 08:49:20;;;;;;;12.02;6.68;;;14.40;99.90;;;;;;5038657;28;20100;-57
2023/04/29 08:51:48;;;;;;;12.38;6.97;;;14.40;99.90;;;;;;5038004;28;20046;-57
2023/04/29 08:54:14;;;;;;;12.38;7.70;;;14.40;99.90;;;;;;5038903;28;20072;-57
2023/04/29 08:56:45;;;;;;;10.55;7.05;;;14.40;99.90;;;;;;5038417;28;20045;-56
2023/04/29 08:59:14;;;;;;;11.23;6.93;;;14.50;99.90;;;;;;5039186;28;20042;-57
2023/04/29 09:01:41;;;;;;;10.68;6.85;;;14.60;99.90;;;;;;5038671;28;20110;-56
2023/04/29 09:04:13;;;;;;;9.95;6.65;;;14.60;99.90;;;;;;5038233;28;20046;-57
2023/04/29 09:06:39;;;;;;;11.10;6.65;;;14.40;99.90;;;;;;5038711;28;20099;-57
2023/04/29 09:09:05;;;;;;;11.23;7.55;;;14.30;99.90;;;;;;5037896;28;20041;-57
2023/04/29 09:11:32;;;;;;;8.52;6.30;;;14.20;99.90;;;;;;5038840;28;20037;-57
2023/04/29 09:14:00;;;;;;;12.85;6.57;;;14.30;99.90;;;;;;5037895;28;20037;-56
2023/04/29 09:16:26;;;;;;;9.75;6.20;;;14.40;99.90;;;;;;5038735;28;20041;-57
2023/04/29 09:18:54;;;;;;;12.57;7.38;;;14.60;99.90;;;;;;5038617;28;20033;-56
2023/04/29 09:21:27;;;;;;;9.63;6.45;;;14.80;99.90;;;;;;5019809;28;20057;-57
2023/04/29 09:23:58;;;;;;;11.93;6.68;;;15.00;99.90;;;;;;5038267;28;20053;-57
2023/04/29 09:26:25;;;;;;;9.93;7.07;;;15.20;99.90;;;;;;5037910;28;20037;-57
2023/04/29 09:29:08;;;;;;;10.27;6.75;;;15.30;99.90;;;;;;5038818;28;20113;-57
2023/04/29 09:31:34;;;;;;;10.48;6.25;;;15.40;99.90;;;;;;5038189;28;20113;-56
2023/04/29 09:34:00;;;;;;;11.95;6.65;;;15.40;99.90;;;;;;5038140;28;20061;-57
2023/04/29 09:36:38;;;;;;;9.98;6.40;;;15.40;99.90;;;;;;5038278;28;20037;-57
2023/04/29 09:39:10;;;;;;;9.82;6.72;;;15.40;99.90;;;;;;5037776;28;20054;-57
2023/04/29 09:41:39;;;;;;;11.85;5.57;;;15.40;99.90;;;;;;5042090;28;20096;-57
2023/04/29 09:44:07;;;;;;;7.93;6.30;;;15.50;99.90;;;;;;5041565;28;20506;-56
2023/04/29 09:46:36;;;;;;;8.40;5.93;;;15.50;99.90;;;;;;5042493;28;20041;-57
2023/04/29 09:49:05;;;;;;;9.68;5.80;;;15.40;99.90;;;;;;5041959;28;20084;-57
2023/04/29 09:51:31;;;;;;;8.80;6.30;;;15.40;99.90;;;;;;5041799;28;20115;-57
2023/04/29 09:53:58;;;;;;;9.27;5.95;;;15.40;99.90;;;;;;5024069;28;20049;-56
2023/04/29 09:56:27;;;;;;;11.25;6.00;;;15.50;99.90;;;;;;5023605;28;20172;-57
2023/04/29 09:58:54;;;;;;;8.55;5.68;;;15.60;99.90;;;;;;5042385;28;20059;-57
2023/04/29 10:01:21;;;;;;;9.68;6.50;;;15.80;99.90;;;;;;5041463;28;20071;-57
2023/04/29 10:03:48;;;;;;;9.95;6.00;;;15.90;99.90;;;;;;5041976;28;20049;-57
2023/04/29 10:06:15;;;;;;;9.60;5.28;;;15.80;99.90;;;;;;5042158;28;20049;-57
2023/04/29 10:08:42;;;;;;;15.98;6.63;;;15.70;99.90;;;;;;5041360;28;20047;-57
2023/04/29 10:11:10;;;;;;;9.77;6.35;;;15.50;99.90;;;;;;5041989;28;20068;-57
2023/04/29 10:13:41;;;;;;;11.20;6.00;;;15.40;99.90;;;;;;5022995;28;20443;-57
2023/04/29 10:16:28;;;;;;;9.07;5.57;;;15.40;99.90;;;;;;5041913;28;20548;-56
2023/04/29 10:18:57;;;;;;;8.65;5.60;;;15.50;99.90;;;;;;5042013;28;20060;-57
2023/04/29 10:21:30;;;;;;;10.18;5.95;;;15.50;99.90;;;;;;5040881;28;20050;-57
2023/04/29 10:23:58;;;;;;;11.80;6.10;;;15.50;99.90;;;;;;5041748;28;20072;-58
2023/04/29 10:26:28;;;;;;;9.45;6.18;;;15.60;99.90;;;;;;5041041;28;20046;-57
2023/04/29 10:28:59;;;;;;;10.70;5.68;;;15.80;99.90;;;;;;5041990;28;20041;-57
2023/04/29 10:31:29;;;;;;;10.55;6.20;;;15.90;99.90;;;;;;5041282;28;20057;-57
2023/04/29 10:33:59;;;;;;;10.55;6.13;;;16.00;99.90;;;;;;5041174;28;20128;-57
2023/04/29 10:36:27;;;;;;;9.70;6.10;;;15.90;99.90;;;;;;5041603;28;20084;-57
2023/04/29 10:38:58;;;;;;;11.05;6.60;;;15.80;99.90;;;;;;5040622;28;20413;-57
2023/04/29 10:41:28;;;;;;;9.63;6.20;;;15.80;99.90;;;;;;5007835;28;20049;-57
2023/04/29 10:43:54;;;;;;;9.05;5.70;;;15.80;99.90;;;;;;5040746;28;20042;-57
2023/04/29 10:46:27;;;;;;;9.30;6.30;;;15.80;99.90;;;;;;5041405;28;20061;-56
2023/04/29 10:49:03;;;;;;;13.75;6.55;;;15.80;99.90;;;;;;5041194;28;20068;-57
2023/04/29 10:51:34;;;;;;;9.77;5.30;;;15.90;99.90;;;;;;5040411;28;20045;-56
2023/04/29 10:54:13;;;;;;;7.65;5.40;;;16.00;99.90;;;;;;5041135;28;20109;-57
2023/04/29 10:56:46;;;;;;;10.13;5.90;;;16.00;99.90;;;;;;5040715;28;20042;-57
2023/04/29 10:59:19;;;;;;;11.57;5.90;;;16.10;99.90;;;;;;5041143;28;20112;-56
2023/04/29 11:01:45;;;;;;;7.45;5.20;;;16.20;99.90;;;;;;5040754;28;20080;-57
2023/04/29 11:04:11;;;;;;;9.60;5.72;;;16.20;99.90;;;;;;5039967;28;20041;-57
2023/04/29 11:06:40;;;;;;;6.63;5.45;;;16.20;99.90;;;;;;5022925;28;20045;-57
2023/04/29 11:09:13;;;;;;;10.05;5.65;;;16.30;99.90;;;;;;5040128;28;20042;-57
2023/04/29 11:11:59;;;;;;;7.45;5.25;;;16.50;99.90;;;;;;5023567;28;20041;-57
2023/04/29 11:14:30;;;;;;;12.55;5.53;;;16.50;99.90;;;;;;5040339;28;20037;-57
2023/04/29 11:17:00;;;;;;;7.03;4.80;;;16.60;99.90;;;;;;5040253;28;20141;-57
2023/04/29 11:19:31;;;;;;;9.38;6.00;;;16.50;99.90;;;;;;5040688;28;20044;-56
2023/04/29 11:22:27;;;;;;;12.63;5.97;;;16.60;99.90;;;;;;5039596;28;20053;-57
2023/04/29 11:25:01;;;;;;;8.65;5.60;;;16.60;99.90;;;;;;5039432;28;20050;-57
2023/04/29 11:27:33;;;;;;;7.20;5.07;;;16.60;99.90;;;;;;5040561;28;20045;-56
2023/04/29 11:30:01;;;;;;;8.00;5.32;;;16.40;99.80;;;;;;5039616;28;20052;-57
2023/04/29 11:32:32;;;;;;;8.75;5.20;;;16.40;99.90;;;;;;5040464;28;20033;-57
2023/04/29 11:35:11;;;;;;;11.30;5.07;;;16.40;99.90;;;;;;5039929;28;20033;-57
2023/04/29 11:37:37;;;;;;;7.82;4.75;;;16.40;99.70;;;;;;5040847;28;20054;-57
2023/04/29 11:40:04;;;;;;;7.03;4.97;;;16.40;99.70;;;;;;5040176;28;20047;-56
2023/04/29 11:42:35;;;;;;;8.88;4.85;;;16.40;99.40;;;;;;5039864;28;20051;-57
2023/04/29 11:45:00;;;;;;;8.75;5.13;;;16.40;99.60;;;;;;5039689;28;20049;-57
2023/04/29 11:47:30;;;;;;;6.30;4.47;;;16.50;99.90;;;;;;5039496;28;20092;-56
2023/04/29 11:50:07;;;;;;;11.02;4.82;;;16.60;99.90;;;;;;5039951;28;20535;-57
2023/04/29 11:52:35;;;;;;;7.07;4.78;;;16.80;99.10;;;;;;5039755;28;20041;-57
2023/04/29 11:55:02;;;;;;;6.30;4.28;;;16.80;97.90;;;;;;5039982;28;20063;-59
2023/04/29 11:57:28;;;;;;;6.57;4.47;;;16.80;98.40;;;;;;5039968;28;20101;-57
2023/04/29 11:59:54;;;;;;;8.60;4.80;;;16.80;98.20;;;;;;5039281;28;20045;-56
2023/04/29 12:02:30;;;;;;;8.15;5.10;;;16.90;97.90;;;;;;5039180;28;20050;-57
2023/04/29 12:04:56;;;;;;;10.60;4.70;;;17.00;98.70;;;;;;5039283;28;20138;-56
2023/04/29 12:07:23;;;;;;;7.80;4.53;;;17.00;98.20;;;;;;5040407;28;20093;-56
2023/04/29 12:09:49;;;;;;;12.68;4.63;;;17.10;98.20;;;;;;5039643;28;20070;-56
2023/04/29 12:12:15;;;;;;;5.75;4.35;;;17.20;98.20;;;;;;5039514;28;20045;-56
2023/04/29 12:14:41;;;;;;;7.78;4.03;;;17.30;99.00;;;;;;5021141;28;20101;-56
2023/04/29 12:17:10;;;;;;;7.68;4.55;;;17.40;98.50;;;;;;5039014;28;20033;-57
2023/04/29 12:19:38;;;;;;;8.35;4.15;;;17.60;98.40;;;;;;5039493;28;20056;-56
2023/04/29 12:22:04;;;;;;;7.15;4.38;;;17.60;98.20;;;;;;5038557;28;20622;-59
2023/04/29 12:24:38;;;;;;;5.65;4.15;;;17.80;98.60;;;;;;5039756;28;20049;-56
2023/04/29 12:27:07;;;;;;;7.85;4.45;;;18.00;97.50;;;;;;5021484;28;20053;-57
2023/04/29 12:29:34;;;;;;;6.82;3.88;;;18.00;96.60;;;;;;5039006;28;20469;-56
2023/04/29 12:32:00;;;;;;;6.03;4.32;;;18.00;97.00;;;;;;5039237;28;20433;-56
2023/04/29 12:34:29;;;;;;;5.20;3.60;;;18.30;97.00;;;;;;5038542;28;20530;-56
2023/04/29 12:36:59;;;;;;;5.47;3.33;;;18.70;97.00;;;;;;5039625;28;20073;-56
2023/04/29 12:39:25;;;;;;;7.15;3.58;;;18.80;94.90;;;;;;5038808;28;20097;-56
2023/04/29 12:41:56;;;;;;;4.22;3.33;;;18.60;95.30;;;;;;5039472;28;20045;-56